Time;durP1;ratioP1;P1;durP2;ratioP2;P2;SDS_P1;SDS_P2;PMS_P1;PMS_P2;Temp;Humidity;BMP_temperature;BMP_pressure;BME280_temperature;BME280_humidity;BME280_pressure;Samples;Min_cycle;Max_cycle;Signal;HPM_P1;HPM_P2
2022/11/01 00:02:16;;;;;;;19.15;10.40;;;;;;;;;;5092681;28;20035;-71
2022/11/01 00:04:42;;;;;;;15.63;10.15;;;;;;;;;;5092904;28;20043;-71
2022/11/01 00:07:08;;;;;;;20.83;10.07;;;;;;;;;;5095211;28;20134;-69
2022/11/01 00:09:34;;;;;;;18.48;9.98;;;;;;;;;;5097588;27;20047;-71
2022/11/01 00:12:00;;;;;;;18.35;10.15;;;;;;;;;;5099150;27;20054;-68
2022/11/01 00:14:26;;;;;;;17.30;9.13;;;;;;;;;;5096085;27;20131;-71
2022/11/01 00:16:52;;;;;;;14.57;9.45;;;;;;;;;;5096370;27;20109;-70
2022/11/01 00:19:18;;;;;;;16.88;9.55;;;;;;;;;;5099249;28;20451;-69
2022/11/01 00:21:44;;;;;;;18.02;9.30;;;;;;;;;;5092913;28;20051;-69
2022/11/01 00:24:10;;;;;;;17.50;8.90;;;;;;;;;;5094466;28;20134;-70
2022/11/01 00:26:36;;;;;;;20.92;9.05;;;;;;;;;;5092576;28;20094;-70
2022/11/01 00:29:03;;;;;;;17.33;9.50;;;;;;;;;;5092507;27;20285;-69
2022/11/01 00:31:29;;;;;;;18.48;8.70;;;;;;;;;;5097877;27;20049;-70
2022/11/01 00:33:55;;;;;;;17.42;9.15;;;;;;;;;;5092952;27;20044;-69
2022/11/01 00:36:21;;;;;;;16.02;9.23;;;;;;;;;;5081080;28;20047;-71
2022/11/01 00:38:51;;;;;;;17.70;8.98;;;;;;;;;;5094868;28;20406;-68
2022/11/01 00:41:18;;;;;;;18.25;9.15;;;;;;;;;;5097041;27;20068;-69
2022/11/01 00:43:44;;;;;;;17.23;9.18;;;;;;;;;;5096119;27;20055;-67
2022/11/01 00:46:10;;;;;;;17.77;9.00;;;;;;;;;;5096986;27;20444;-71
2022/11/01 00:48:36;;;;;;;15.32;8.93;;;;;;;;;;5093718;28;20040;-71
2022/11/01 00:51:02;;;;;;;14.48;8.90;;;;;;;;;;5093760;28;20051;-68
2022/11/01 00:53:28;;;;;;;18.52;9.32;;;;;;;;;;5093684;28;20056;-71
2022/11/01 00:55:58;;;;;;;17.92;9.00;;;;;;;;;;5096756;28;20048;-70
2022/11/01 00:58:24;;;;;;;17.90;8.65;;;;;;;;;;5094136;27;20035;-71
2022/11/01 01:00:50;;;;;;;21.15;9.45;;;;;;;;;;5095640;27;20080;-68
2022/11/01 01:03:16;;;;;;;17.83;8.90;;;;;;;;;;5092126;27;20125;-71
2022/11/01 01:05:42;;;;;;;17.52;9.43;;;;;;;;;;5096876;27;20059;-68
2022/11/01 01:08:08;;;;;;;12.95;8.35;;;;;;;;;;5092122;27;20036;-70
2022/11/01 01:10:35;;;;;;;14.13;8.13;;;;;;;;;;5096926;27;20131;-71
2022/11/01 01:13:01;;;;;;;16.33;8.48;;;;;;;;;;5090468;27;20059;-71
2022/11/01 01:15:27;;;;;;;19.55;9.23;;;;;;;;;;5096805;28;20442;-70
2022/11/01 01:17:53;;;;;;;15.75;7.78;;;;;;;;;;5093319;28;20048;-68
2022/11/01 01:20:19;;;;;;;12.23;7.65;;;;;;;;;;5080034;28;20138;-71
2022/11/01 01:22:45;;;;;;;16.05;6.90;;;;;;;;;;5098799;28;20059;-68
2022/11/01 01:25:11;;;;;;;16.77;7.78;;;;;;;;;;5090702;28;20051;-70
2022/11/01 01:27:38;;;;;;;14.32;7.25;;;;;;;;;;5097211;28;20394;-70
2022/11/01 01:30:06;;;;;;;12.55;6.88;;;;;;;;;;5093000;28;20067;-68
2022/11/01 01:32:32;;;;;;;16.10;7.07;;;;;;;;;;5092953;28;20043;-70
2022/11/01 01:34:58;;;;;;;13.38;6.63;;;;;;;;;;5090320;27;20074;-72
2022/11/01 01:37:24;;;;;;;16.55;7.20;;;;;;;;;;5093112;27;20406;-69
2022/11/01 01:39:50;;;;;;;14.27;7.10;;;;;;;;;;5092940;28;20040;-71
2022/11/01 01:42:26;;;;;;;14.15;6.65;;;;;;;;;;5092119;27;20430;-72
2022/11/01 01:44:55;;;;;;;14.73;7.40;;;;;;;;;;5094836;27;20048;-68
2022/11/01 01:47:22;;;;;;;13.60;7.20;;;;;;;;;;5093617;28;20097;-69
2022/11/01 01:49:54;;;;;;;17.52;7.40;;;;;;;;;;5093515;28;21010;-71
2022/11/01 01:52:21;;;;;;;15.73;6.85;;;;;;;;;;5086645;28;20051;-70
2022/11/01 01:54:49;;;;;;;13.73;6.80;;;;;;;;;;5092220;28;20076;-70
2022/11/01 01:57:15;;;;;;;15.43;7.45;;;;;;;;;;5089551;28;20052;-70
2022/11/01 01:59:41;;;;;;;18.60;6.57;;;;;;;;;;5093833;27;20139;-69
2022/11/01 02:02:08;;;;;;;17.50;7.45;;;;;;;;;;5096877;27;20036;-71
2022/11/01 02:04:37;;;;;;;18.65;7.65;;;;;;;;;;5094535;27;20027;-70
2022/11/01 02:07:03;;;;;;;17.13;7.03;;;;;;;;;;5094432;27;20062;-68
2022/11/01 02:09:29;;;;;;;17.35;6.68;;;;;;;;;;5098659;27;20043;-71
2022/11/01 02:11:55;;;;;;;12.45;6.32;;;;;;;;;;5090870;28;20077;-70
2022/11/01 02:14:22;;;;;;;14.38;6.93;;;;;;;;;;5096642;27;20051;-70
2022/11/01 02:16:48;;;;;;;17.33;6.63;;;;;;;;;;5092103;28;20052;-70
2022/11/01 02:19:33;;;;;;;14.80;7.20;;;;;;;;;;5093835;27;20050;-69
2022/11/01 02:22:18;;;;;;;14.82;7.00;;;;;;;;;;5089891;28;20036;-69
2022/11/01 02:24:50;;;;;;;13.70;6.60;;;;;;;;;;5092146;28;20618;-68
2022/11/01 02:27:16;;;;;;;13.10;6.05;;;;;;;;;;5093803;27;20100;-70
2022/11/01 02:30:01;;;;;;;13.05;6.45;;;;;;;;;;5090195;28;20711;-68
2022/11/01 02:32:51;;;;;;;14.70;6.32;;;;;;;;;;5094696;27;20092;-70
2022/11/01 02:35:17;;;;;;;18.95;7.38;;;;;;;;;;5094597;27;20058;-70
2022/11/01 02:37:52;;;;;;;16.67;6.10;;;;;;;;;;5093734;28;20043;-70
2022/11/01 02:40:26;;;;;;;18.85;6.82;;;;;;;;;;5096125;27;20096;-68
2022/11/01 02:42:54;;;;;;;15.85;6.57;;;;;;;;;;5091875;28;20047;-67
2022/11/01 02:45:39;;;;;;;18.65;6.40;;;;;;;;;;5094104;28;20043;-71
2022/11/01 02:48:06;;;;;;;16.45;7.20;;;;;;;;;;5088305;28;20048;-71
2022/11/01 02:50:40;;;;;;;13.93;6.55;;;;;;;;;;5094464;28;20043;-70
2022/11/01 02:53:06;;;;;;;16.70;6.55;;;;;;;;;;5090304;28;20043;-68
2022/11/01 02:55:34;;;;;;;20.35;6.90;;;;;;;;;;5100826;27;20046;-70
2022/11/01 02:58:20;;;;;;;12.73;6.15;;;;;;;;;;5090115;27;20040;-71
2022/11/01 03:00:46;;;;;;;9.80;6.30;;;;;;;;;;5090491;28;20067;-69
2022/11/01 03:03:14;;;;;;;13.45;5.85;;;;;;;;;;5087868;27;20048;-70
2022/11/01 03:05:51;;;;;;;21.83;6.50;;;;;;;;;;5090914;27;20086;-68
2022/11/01 03:08:19;;;;;;;13.20;6.10;;;;;;;;;;5095843;27;20032;-71
2022/11/01 03:10:48;;;;;;;15.25;5.95;;;;;;;;;;5094625;28;20529;-68
2022/11/01 03:13:27;;;;;;;15.18;6.07;;;;;;;;;;5094621;27;20051;-68
2022/11/01 03:15:56;;;;;;;13.27;5.95;;;;;;;;;;5091732;28;20052;-70
2022/11/01 03:18:28;;;;;;;12.90;5.85;;;;;;;;;;5092651;28;20056;-71
2022/11/01 03:20:58;;;;;;;12.27;5.68;;;;;;;;;;5091941;28;20047;-69
2022/11/01 03:23:38;;;;;;;14.57;6.20;;;;;;;;;;5091048;28;20102;-70
2022/11/01 03:26:08;;;;;;;16.98;6.18;;;;;;;;;;5091777;28;20031;-68
2022/11/01 03:28:42;;;;;;;13.23;5.72;;;;;;;;;;5089940;28;20046;-70
2022/11/01 03:31:12;;;;;;;12.45;6.05;;;;;;;;;;5093609;28;20051;-71
2022/11/01 03:33:42;;;;;;;17.50;6.15;;;;;;;;;;5074920;28;20076;-69
2022/11/01 03:36:10;;;;;;;12.50;5.38;;;;;;;;;;5092490;28;20100;-71
2022/11/01 03:38:37;;;;;;;12.43;6.10;;;;;;;;;;5090034;28;20040;-68
2022/11/01 03:41:04;;;;;;;10.35;5.63;;;;;;;;;;5091667;28;20059;-71
2022/11/01 03:43:31;;;;;;;13.80;5.80;;;;;;;;;;5076754;28;20048;-69
2022/11/01 03:45:58;;;;;;;11.70;5.70;;;;;;;;;;5093360;28;20036;-68
2022/11/01 03:48:23;;;;;;;12.23;5.63;;;;;;;;;;5076854;28;20189;-68
2022/11/01 03:50:50;;;;;;;12.15;5.20;;;;;;;;;;5075283;28;20114;-71
2022/11/01 03:53:16;;;;;;;12.32;5.20;;;;;;;;;;5091463;28;20062;-71
2022/11/01 03:55:42;;;;;;;10.38;5.10;;;;;;;;;;5091745;28;20139;-68
2022/11/01 03:58:09;;;;;;;10.65;5.18;;;;;;;;;;5092083;28;20044;-71
2022/11/01 04:00:36;;;;;;;13.40;6.10;;;;;;;;;;5091294;28;20581;-71
2022/11/01 04:03:03;;;;;;;8.82;5.43;;;;;;;;;;5096069;28;20044;-72
2022/11/01 04:05:30;;;;;;;12.07;5.30;;;;;;;;;;5091148;28;20058;-71
2022/11/01 04:07:56;;;;;;;14.48;5.70;;;;;;;;;;5090331;28;20040;-69
2022/11/01 04:10:22;;;;;;;18.33;6.05;;;;;;;;;;5087646;28;20387;-68
2022/11/01 04:12:49;;;;;;;12.80;5.28;;;;;;;;;;5095590;28;20045;-71
2022/11/01 04:21:06;;;;;;;14.88;5.25;;;;;;;;;;5093463;28;20135;-70
2022/11/01 04:23:33;;;;;;;12.13;5.13;;;;;;;;;;5091634;28;20407;-70
2022/11/01 04:25:59;;;;;;;10.25;5.05;;;;;;;;;;5095343;28;21403;-69
2022/11/01 04:28:24;;;;;;;13.38;5.72;;;;;;;;;;5088764;28;20035;-71
2022/11/01 04:30:50;;;;;;;11.85;4.85;;;;;;;;;;5091661;28;20056;-68
2022/11/01 04:33:17;;;;;;;12.80;5.20;;;;;;;;;;5074310;28;20494;-68
2022/11/01 04:35:43;;;;;;;16.50;4.90;;;;;;;;;;5091365;28;20409;-70
2022/11/01 04:38:10;;;;;;;12.07;5.00;;;;;;;;;;5093832;28;20040;-71
2022/11/01 04:40:36;;;;;;;12.35;5.50;;;;;;;;;;5092302;28;20130;-68
2022/11/01 04:43:02;;;;;;;9.35;4.95;;;;;;;;;;5091505;28;20127;-71
2022/11/01 04:45:28;;;;;;;11.70;5.50;;;;;;;;;;5096887;28;20047;-68
2022/11/01 04:48:05;;;;;;;8.80;4.88;;;;;;;;;;5090485;28;20039;-68
2022/11/01 04:50:32;;;;;;;11.02;5.00;;;;;;;;;;5097442;28;20048;-69
2022/11/01 04:52:58;;;;;;;9.20;4.82;;;;;;;;;;5095389;27;20717;-70
2022/11/01 04:55:24;;;;;;;13.07;5.28;;;;;;;;;;5093970;28;20051;-71
2022/11/01 04:57:50;;;;;;;12.38;4.97;;;;;;;;;;5078186;28;20044;-69
2022/11/01 05:00:17;;;;;;;11.07;5.18;;;;;;;;;;5092999;27;20043;-72
2022/11/01 05:02:43;;;;;;;9.93;4.95;;;;;;;;;;5095155;27;20048;-70
2022/11/01 05:05:10;;;;;;;11.98;4.90;;;;;;;;;;5095871;27;20050;-71
2022/11/01 05:07:35;;;;;;;8.98;4.55;;;;;;;;;;5094951;27;20035;-70
2022/11/01 05:10:02;;;;;;;11.00;4.30;;;;;;;;;;5092677;28;20058;-71
2022/11/01 05:12:28;;;;;;;7.35;4.50;;;;;;;;;;5095118;27;20108;-71
2022/11/01 05:14:54;;;;;;;12.98;4.82;;;;;;;;;;5095999;27;20032;-70
2022/11/01 05:17:20;;;;;;;7.60;4.65;;;;;;;;;;5097383;27;20043;-70
2022/11/01 05:19:46;;;;;;;10.40;4.90;;;;;;;;;;5079052;28;20117;-69
2022/11/01 05:22:12;;;;;;;11.05;4.47;;;;;;;;;;5090128;28;20035;-70
2022/11/01 05:24:38;;;;;;;8.75;4.20;;;;;;;;;;5091698;28;20487;-68
2022/11/01 05:27:04;;;;;;;11.27;4.82;;;;;;;;;;5091291;28;20047;-71
2022/11/01 05:29:29;;;;;;;11.32;4.53;;;;;;;;;;5091719;28;20052;-68
2022/11/01 05:31:55;;;;;;;10.30;4.50;;;;;;;;;;5090008;28;20047;-72
2022/11/01 05:34:21;;;;;;;8.25;4.30;;;;;;;;;;5092863;27;20048;-71
2022/11/01 05:36:47;;;;;;;7.80;4.30;;;;;;;;;;5091318;28;20058;-68
2022/11/01 05:39:13;;;;;;;8.77;4.25;;;;;;;;;;5092723;27;20429;-71
2022/11/01 05:41:39;;;;;;;11.32;4.45;;;;;;;;;;5093057;27;20201;-68
2022/11/01 05:44:06;;;;;;;8.63;4.20;;;;;;;;;;5093609;28;20074;-68
2022/11/01 05:46:32;;;;;;;8.00;4.00;;;;;;;;;;5100601;27;20043;-67
2022/11/01 05:48:58;;;;;;;11.40;3.28;;;;;;;;;;5092611;28;20509;-69
2022/11/01 05:51:24;;;;;;;16.38;2.15;;;;;;;;;;5090444;27;20048;-68
2022/11/01 05:53:50;;;;;;;6.80;2.08;;;;;;;;;;5091006;28;20044;-70
2022/11/01 05:56:16;;;;;;;4.93;1.55;;;;;;;;;;5090738;28;20044;-70
2022/11/01 05:58:42;;;;;;;2.22;1.13;;;;;;;;;;5094420;28;20088;-68
2022/11/01 06:01:09;;;;;;;6.43;1.30;;;;;;;;;;5095523;27;20058;-71
2022/11/01 06:03:35;;;;;;;4.40;1.20;;;;;;;;;;5091117;27;20048;-71
2022/11/01 06:06:01;;;;;;;6.10;1.33;;;;;;;;;;5090661;27;20040;-70
2022/11/01 06:08:28;;;;;;;4.32;1.20;;;;;;;;;;5091421;28;20073;-69
2022/11/01 06:11:01;;;;;;;5.55;1.20;;;;;;;;;;5094919;27;20092;-71
2022/11/01 06:13:27;;;;;;;6.40;1.20;;;;;;;;;;5076374;27;20433;-70
2022/11/01 06:16:00;;;;;;;7.43;1.50;;;;;;;;;;5093382;27;20048;-68
2022/11/01 06:18:26;;;;;;;6.68;1.30;;;;;;;;;;5091210;28;20039;-70
2022/11/01 06:20:52;;;;;;;2.63;1.10;;;;;;;;;;5088940;28;20036;-70
2022/11/01 06:23:18;;;;;;;4.25;1.30;;;;;;;;;;5088459;27;20770;-70
2022/11/01 06:25:44;;;;;;;2.95;1.10;;;;;;;;;;5091433;27;20055;-68
2022/11/01 06:28:10;;;;;;;3.33;1.35;;;;;;;;;;5089479;28;20059;-71
2022/11/01 06:30:40;;;;;;;3.65;1.20;;;;;;;;;;5091589;27;20048;-69
2022/11/01 06:33:08;;;;;;;5.47;1.52;;;;;;;;;;5090059;28;20039;-69
2022/11/01 06:35:34;;;;;;;4.85;1.60;;;;;;;;;;5094403;27;20059;-68
2022/11/01 06:38:05;;;;;;;4.43;1.40;;;;;;;;;;5091851;27;20070;-69
2022/11/01 06:40:31;;;;;;;5.70;1.17;;;;;;;;;;5089852;27;20047;-70
2022/11/01 06:43:01;;;;;;;4.70;1.33;;;;;;;;;;5091169;27;20052;-68
2022/11/01 06:45:27;;;;;;;2.85;1.00;;;;;;;;;;5097685;27;20043;-71
2022/11/01 06:47:53;;;;;;;3.65;1.40;;;;;;;;;;5092168;28;20051;-70
2022/11/01 06:50:19;;;;;;;2.75;1.30;;;;;;;;;;5098007;28;20389;-71
2022/11/01 06:52:45;;;;;;;9.43;1.45;;;;;;;;;;5100200;27;20130;-70
2022/11/01 06:55:12;;;;;;;7.07;1.40;;;;;;;;;;5104138;28;20048;-68
2022/11/01 06:57:37;;;;;;;5.03;1.58;;;;;;;;;;5100089;27;20047;-68
2022/11/01 07:00:04;;;;;;;5.00;1.38;;;;;;;;;;5097529;27;20510;-71
2022/11/01 07:02:30;;;;;;;3.65;1.00;;;;;;;;;;5094125;27;20036;-71
2022/11/01 07:04:56;;;;;;;2.58;1.13;;;;;;;;;;5096083;27;20067;-71
2022/11/01 07:07:22;;;;;;;6.65;1.00;;;;;;;;;;5110237;27;20040;-71
2022/11/01 07:09:48;;;;;;;7.30;1.20;;;;;;;;;;5102723;28;20044;-70
2022/11/01 07:12:14;;;;;;;3.67;1.15;;;;;;;;;;5103253;28;20047;-70
2022/11/01 07:14:40;;;;;;;5.43;1.10;;;;;;;;;;5095044;28;20100;-67
2022/11/01 07:17:06;;;;;;;5.55;1.25;;;;;;;;;;5072340;28;20044;-69
2022/11/01 07:19:32;;;;;;;4.50;1.23;;;;;;;;;;5091548;28;20044;-69
2022/11/01 07:21:57;;;;;;;5.10;1.20;;;;;;;;;;5095808;27;20048;-69
2022/11/01 07:24:23;;;;;;;3.90;1.40;;;;;;;;;;5096252;28;20043;-70
2022/11/01 07:26:50;;;;;;;3.97;1.00;;;;;;;;;;5093163;28;20517;-71
2022/11/01 07:29:15;;;;;;;3.33;1.10;;;;;;;;;;5106589;27;20114;-70
2022/11/01 07:31:42;;;;;;;5.75;1.27;;;;;;;;;;5098609;28;20042;-70
2022/11/01 07:34:08;;;;;;;9.77;1.60;;;;;;;;;;5098031;28;20221;-70
2022/11/01 07:36:33;;;;;;;10.13;1.60;;;;;;;;;;5101894;28;20088;-69
2022/11/01 07:38:59;;;;;;;7.43;1.55;;;;;;;;;;5093263;28;20040;-68
2022/11/01 07:41:26;;;;;;;6.10;1.30;;;;;;;;;;5096021;28;20043;-68
2022/11/01 07:43:52;;;;;;;8.07;1.55;;;;;;;;;;5098164;28;20557;-69
2022/11/01 07:46:18;;;;;;;6.45;1.45;;;;;;;;;;5109058;28;20039;-70
2022/11/01 07:48:44;;;;;;;8.05;1.40;;;;;;;;;;5104031;28;20051;-70
2022/11/01 07:51:10;;;;;;;6.18;1.30;;;;;;;;;;5102016;28;20104;-68
2022/11/01 07:53:36;;;;;;;7.13;1.25;;;;;;;;;;5099718;28;20055;-69
2022/11/01 07:56:03;;;;;;;10.10;1.90;;;;;;;;;;5108514;28;20071;-69
2022/11/01 07:58:29;;;;;;;11.18;1.90;;;;;;;;;;5094788;28;20059;-67
2022/11/01 08:00:55;;;;;;;9.25;1.65;;;;;;;;;;5096847;28;20048;-67
2022/11/01 08:03:21;;;;;;;10.52;1.88;;;;;;;;;;5113073;28;20039;-69
2022/11/01 08:05:47;;;;;;;14.45;1.98;;;;;;;;;;5103104;28;20054;-70
2022/11/01 08:08:14;;;;;;;10.15;1.80;;;;;;;;;;5107397;28;20088;-68
2022/11/01 08:10:41;;;;;;;14.07;2.25;;;;;;;;;;5106160;28;20509;-71
2022/11/01 08:13:24;;;;;;;8.82;1.88;;;;;;;;;;5104984;28;20040;-71
2022/11/01 08:15:51;;;;;;;11.23;1.92;;;;;;;;;;5111450;28;20065;-71
2022/11/01 08:18:17;;;;;;;11.82;1.98;;;;;;;;;;5100358;28;20043;-67
2022/11/01 08:20:43;;;;;;;11.07;2.30;;;;;;;;;;5104365;28;20172;-72
2022/11/01 08:23:10;;;;;;;9.90;2.30;;;;;;;;;;5104331;28;20123;-68
2022/11/01 08:25:36;;;;;;;18.00;2.50;;;;;;;;;;5111187;28;20375;-68
2022/11/01 08:28:03;;;;;;;14.80;2.97;;;;;;;;;;5103407;28;20405;-68
2022/11/01 08:30:29;;;;;;;11.93;2.33;;;;;;;;;;5111232;28;20055;-68
2022/11/01 08:33:02;;;;;;;16.27;3.15;;;;;;;;;;5108847;27;20039;-70
2022/11/01 08:35:28;;;;;;;;;;;;;;;;;;5112792;27;20443;-69
2022/11/01 08:37:54;;;;;;;13.05;2.50;;;;;;;;;;5104522;27;20285;-69
2022/11/01 08:40:21;;;;;;;16.25;2.47;;;;;;;;;;5104995;28;20050;-68
2022/11/01 08:42:47;;;;;;;14.57;2.42;;;;;;;;;;5117165;27;20035;-68
2022/11/01 08:45:13;;;;;;;14.90;3.40;;;;;;;;;;5110179;27;20036;-72
2022/11/01 08:47:40;;;;;;;17.13;3.08;;;;;;;;;;5113688;27;20092;-69
2022/11/01 08:50:07;;;;;;;17.38;2.78;;;;;;;;;;5109586;28;20046;-67
2022/11/01 08:52:33;;;;;;;14.02;2.67;;;;;;;;;;5085914;28;20048;-67
2022/11/01 08:54:59;;;;;;;17.17;3.28;;;;;;;;;;5104419;28;20047;-70
2022/11/01 08:57:25;;;;;;;15.02;2.35;;;;;;;;;;5107131;28;20382;-70
2022/11/01 08:59:51;;;;;;;17.58;3.08;;;;;;;;;;5118413;27;20043;-70
2022/11/01 09:02:17;;;;;;;22.58;3.45;;;;;;;;;;5114068;27;20502;-68
2022/11/01 09:04:43;;;;;;;18.15;3.10;;;;;;;;;;5106113;28;20047;-70
2022/11/01 09:07:09;;;;;;;14.30;2.63;;;;;;;;;;5108014;27;20039;-70
2022/11/01 09:09:35;;;;;;;18.67;3.08;;;;;;;;;;5107513;28;20553;-69
2022/11/01 09:12:03;;;;;;;17.23;3.15;;;;;;;;;;5108327;28;20082;-69
2022/11/01 09:14:29;;;;;;;13.70;2.83;;;;;;;;;;5108789;27;20047;-70
2022/11/01 09:16:55;;;;;;;18.27;3.10;;;;;;;;;;5106826;27;20046;-71
2022/11/01 09:19:21;;;;;;;15.20;2.85;;;;;;;;;;5117272;27;20049;-71
2022/11/01 09:21:47;;;;;;;14.68;2.80;;;;;;;;;;5103130;28;20095;-69
2022/11/01 09:24:14;;;;;;;14.38;2.78;;;;;;;;;;5108276;28;20040;-70
2022/11/01 09:26:40;;;;;;;18.48;3.00;;;;;;;;;;5102343;27;20043;-69
2022/11/01 09:29:06;;;;;;;15.13;2.92;;;;;;;;;;5104157;27;20542;-70
2022/11/01 09:31:32;;;;;;;17.08;2.85;;;;;;;;;;5104777;27;20134;-70
2022/11/01 09:33:59;;;;;;;19.00;3.10;;;;;;;;;;5107643;27;20050;-68
2022/11/01 09:36:26;;;;;;;11.95;2.65;;;;;;;;;;5109077;27;20042;-67
2022/11/01 09:38:52;;;;;;;14.25;2.88;;;;;;;;;;5108415;28;20047;-69
2022/11/01 09:41:21;;;;;;;14.75;3.22;;;;;;;;;;5110243;27;20047;-68
2022/11/01 09:43:47;;;;;;;15.25;3.30;;;;;;;;;;5111358;27;20048;-67
2022/11/01 09:46:15;;;;;;;23.13;3.40;;;;;;;;;;5106937;27;20031;-68
2022/11/01 09:48:42;;;;;;;14.40;2.60;;;;;;;;;;5111132;27;20053;-68
2022/11/01 09:51:13;;;;;;;12.23;2.72;;;;;;;;;;5109270;28;20054;-68
2022/11/01 09:53:39;;;;;;;20.48;3.40;;;;;;;;;;5082123;28;20120;-68
2022/11/01 09:56:09;;;;;;;17.35;3.47;;;;;;;;;;5102424;28;20050;-68
2022/11/01 09:58:46;;;;;;;19.10;3.25;;;;;;;;;;5102764;28;20486;-68
2022/11/01 10:01:22;;;;;;;19.55;3.10;;;;;;;;;;5117232;27;20080;-68
2022/11/01 10:03:56;;;;;;;15.25;2.92;;;;;;;;;;5110443;27;20055;-68
2022/11/01 10:06:24;;;;;;;12.68;2.67;;;;;;;;;;5111043;28;20039;-68
2022/11/01 10:08:57;;;;;;;20.52;3.15;;;;;;;;;;5101765;28;20059;-68
2022/11/01 10:11:23;;;;;;;15.98;2.80;;;;;;;;;;5108620;27;20120;-68
2022/11/01 10:14:05;;;;;;;14.32;3.20;;;;;;;;;;5107172;27;20489;-69
2022/11/01 10:16:42;;;;;;;12.52;2.97;;;;;;;;;;5114036;27;20039;-68
2022/11/01 10:19:20;;;;;;;17.40;3.30;;;;;;;;;;5099535;28;20134;-68
2022/11/01 10:21:52;;;;;;;20.63;3.28;;;;;;;;;;5104617;28;20070;-68
2022/11/01 10:24:27;;;;;;;21.00;3.40;;;;;;;;;;5103541;28;20087;-68
2022/11/01 10:27:02;;;;;;;10.50;2.70;;;;;;;;;;5107043;27;20184;-69
2022/11/01 10:29:28;;;;;;;16.40;3.13;;;;;;;;;;5099923;28;20046;-68
2022/11/01 10:31:54;;;;;;;12.88;2.65;;;;;;;;;;5086115;27;20035;-68
2022/11/01 10:34:20;;;;;;;16.50;3.03;;;;;;;;;;5106932;28;20088;-68
2022/11/01 10:36:47;;;;;;;19.85;2.95;;;;;;;;;;5107327;27;20043;-68
2022/11/01 10:39:44;;;;;;;14.30;3.00;;;;;;;;;;5107271;27;20043;-68
2022/11/01 10:42:14;;;;;;;19.80;3.47;;;;;;;;;;5087009;28;20044;-71
2022/11/01 10:44:42;;;;;;;16.05;3.22;;;;;;;;;;5092944;28;20040;-68
2022/11/01 10:47:11;;;;;;;19.77;3.50;;;;;;;;;;5098791;28;20040;-68
2022/11/01 10:49:38;;;;;;;15.48;3.15;;;;;;;;;;5107559;27;20099;-68
2022/11/01 10:52:06;;;;;;;15.38;3.47;;;;;;;;;;5112726;27;20055;-68
2022/11/01 10:54:34;;;;;;;18.63;3.08;;;;;;;;;;5106650;27;20399;-69
2022/11/01 10:57:03;;;;;;;14.25;2.85;;;;;;;;;;5107995;27;20048;-70
2022/11/01 10:59:40;;;;;;;16.65;3.45;;;;;;;;;;5107942;28;20055;-70
2022/11/01 11:02:13;;;;;;;19.80;3.08;;;;;;;;;;5111884;27;20147;-70
2022/11/01 11:04:39;;;;;;;19.50;3.55;;;;;;;;;;5103543;28;20138;-68
2022/11/01 11:07:11;;;;;;;18.98;3.22;;;;;;;;;;5101259;27;20119;-70
2022/11/01 11:09:37;;;;;;;22.35;3.95;;;;;;;;;;5105019;28;20562;-67
2022/11/01 11:12:06;;;;;;;17.27;3.28;;;;;;;;;;5102140;28;20576;-70
2022/11/01 11:14:33;;;;;;;18.00;3.05;;;;;;;;;;5106295;28;20135;-69
2022/11/01 11:16:59;;;;;;;19.48;3.78;;;;;;;;;;5102207;28;20051;-68
2022/11/01 11:19:28;;;;;;;21.35;3.70;;;;;;;;;;5102944;27;20134;-68
2022/11/01 11:21:55;;;;;;;15.27;3.25;;;;;;;;;;5104299;27;20047;-70
2022/11/01 11:24:22;;;;;;;21.35;3.83;;;;;;;;;;5100433;28;20039;-70
2022/11/01 11:26:50;;;;;;;21.73;3.70;;;;;;;;;;5106044;27;20498;-70
2022/11/01 11:29:25;;;;;;;13.48;2.80;;;;;;;;;;5107061;28;20040;-71
2022/11/01 11:31:55;;;;;;;16.08;2.92;;;;;;;;;;5100302;28;20035;-70
2022/11/01 11:34:29;;;;;;;16.20;3.25;;;;;;;;;;5096029;28;20073;-70
2022/11/01 11:36:56;;;;;;;16.60;3.65;;;;;;;;;;5103470;28;20123;-69
2022/11/01 11:39:23;;;;;;;15.05;2.88;;;;;;;;;;5112213;28;20039;-67
2022/11/01 11:41:49;;;;;;;15.27;2.78;;;;;;;;;;5102179;28;20044;-67
2022/11/01 11:44:34;;;;;;;15.50;2.88;;;;;;;;;;5108098;28;20043;-69
2022/11/01 11:47:01;;;;;;;16.45;2.97;;;;;;;;;;5083996;28;20036;-68
2022/11/01 11:49:31;;;;;;;16.15;2.47;;;;;;;;;;5101550;28;20780;-67
2022/11/01 11:51:57;;;;;;;12.40;2.40;;;;;;;;;;5100144;28;20043;-67
2022/11/01 11:54:30;;;;;;;17.58;3.35;;;;;;;;;;5094537;28;20040;-67
2022/11/01 11:57:14;;;;;;;12.80;2.95;;;;;;;;;;5111055;28;20047;-70
2022/11/01 11:59:42;;;;;;;15.05;3.10;;;;;;;;;;5102433;27;20079;-68
2022/11/01 12:02:16;;;;;;;14.48;3.03;;;;;;;;;;5109549;27;20056;-67
2022/11/01 12:04:46;;;;;;;11.93;2.42;;;;;;;;;;5105569;28;20752;-67
2022/11/01 12:07:23;;;;;;;13.23;3.17;;;;;;;;;;5102677;27;20036;-68
2022/11/01 12:09:49;;;;;;;15.75;2.90;;;;;;;;;;5107667;28;20051;-71
2022/11/01 12:12:15;;;;;;;17.67;3.03;;;;;;;;;;5107153;27;20063;-67
2022/11/01 12:14:41;;;;;;;12.93;2.70;;;;;;;;;;5106379;28;20088;-67
2022/11/01 12:17:22;;;;;;;11.13;2.83;;;;;;;;;;5101298;27;20040;-68
2022/11/01 12:19:48;;;;;;;13.10;2.70;;;;;;;;;;5107751;27;20549;-67
2022/11/01 12:22:14;;;;;;;14.70;3.10;;;;;;;;;;5111691;27;20119;-67
2022/11/01 12:24:43;;;;;;;12.35;2.97;;;;;;;;;;5103182;27;20048;-67
2022/11/01 12:27:13;;;;;;;11.05;2.40;;;;;;;;;;5108304;27;20050;-69
2022/11/01 12:29:51;;;;;;;10.60;2.30;;;;;;;;;;5110111;28;20040;-70
2022/11/01 12:32:30;;;;;;;9.95;2.28;;;;;;;;;;5106600;27;20078;-70
2022/11/01 12:34:59;;;;;;;11.98;2.83;;;;;;;;;;5102204;27;20075;-70
2022/11/01 12:37:48;;;;;;;13.23;2.65;;;;;;;;;;5109435;27;20084;-70
2022/11/01 12:40:17;;;;;;;12.98;2.63;;;;;;;;;;5078226;28;20574;-70
2022/11/01 12:42:50;;;;;;;10.32;2.13;;;;;;;;;;5108595;27;20062;-69
2022/11/01 12:45:26;;;;;;;12.25;2.83;;;;;;;;;;5080869;27;20127;-70
2022/11/01 12:47:58;;;;;;;11.20;2.20;;;;;;;;;;5108224;27;20154;-71
2022/11/01 12:50:29;;;;;;;12.80;2.80;;;;;;;;;;5091898;28;20044;-70
2022/11/01 12:52:57;;;;;;;13.20;2.47;;;;;;;;;;5114771;27;20437;-70
2022/11/01 12:55:30;;;;;;;8.25;2.00;;;;;;;;;;5109891;27;20044;-70
2022/11/01 12:57:56;;;;;;;13.43;2.15;;;;;;;;;;5108758;27;20066;-70
2022/11/01 13:00:23;;;;;;;9.55;2.25;;;;;;;;;;5106702;27;20047;-71
2022/11/01 13:02:56;;;;;;;11.15;2.53;;;;;;;;;;5103023;28;20043;-70
2022/11/01 13:05:26;;;;;;;11.70;2.22;;;;;;;;;;5100408;27;20056;-68
2022/11/01 13:07:52;;;;;;;13.20;2.53;;;;;;;;;;5109422;27;20040;-68
2022/11/01 13:10:30;;;;;;;10.15;2.35;;;;;;;;;;5095835;28;20052;-68
2022/11/01 13:13:02;;;;;;;8.73;2.20;;;;;;;;;;5097803;28;20059;-68
2022/11/01 13:15:35;;;;;;;14.50;2.70;;;;;;;;;;5111637;27;20415;-73
2022/11/01 13:18:09;;;;;;;11.88;2.28;;;;;;;;;;5094822;27;20048;-68
2022/11/01 13:20:44;;;;;;;14.10;2.30;;;;;;;;;;5097543;27;20070;-69
2022/11/01 13:23:10;;;;;;;18.05;2.40;;;;;;;;;;5092446;27;20082;-69
2022/11/01 13:25:42;;;;;;;11.18;2.22;;;;;;;;;;5093900;28;20052;-68
2022/11/01 13:28:08;;;;;;;;;;;;;;;;;;5097927;27;20069;-70
2022/11/01 13:30:37;;;;;;;11.60;2.40;;;;;;;;;;5104347;27;19916;-70
2022/11/01 13:33:14;;;;;;;14.65;2.47;;;;;;;;;;5080620;28;20492;-69
2022/11/01 13:35:59;;;;;;;9.38;2.20;;;;;;;;;;5096378;28;20075;-69
2022/11/01 13:38:55;;;;;;;12.27;1.88;;;;;;;;;;5090720;27;20069;-70
2022/11/01 13:41:20;;;;;;;11.02;2.00;;;;;;;;;;5077345;28;20054;-70
2022/11/01 13:43:50;;;;;;;7.13;1.80;;;;;;;;;;5100688;27;20498;-70
2022/11/01 13:46:28;;;;;;;9.73;2.05;;;;;;;;;;5095903;28;20081;-69
2022/11/01 13:49:00;;;;;;;8.55;2.05;;;;;;;;;;5112252;27;20529;-70
2022/11/01 13:51:45;;;;;;;9.40;2.30;;;;;;;;;;5095454;27;20829;-69
2022/11/01 13:54:16;;;;;;;10.40;2.20;;;;;;;;;;5095928;28;20447;-70
2022/11/01 13:56:45;;;;;;;13.27;2.40;;;;;;;;;;5096028;27;20105;-70
2022/11/01 13:59:12;;;;;;;10.80;2.03;;;;;;;;;;5097287;27;20473;-70
2022/11/01 14:01:39;;;;;;;13.63;2.35;;;;;;;;;;5103104;27;20489;-69
2022/11/01 14:04:08;;;;;;;14.77;2.38;;;;;;;;;;5081448;28;20048;-70
2022/11/01 14:06:38;;;;;;;9.32;2.00;;;;;;;;;;5096519;27;20060;-70
2022/11/01 14:09:24;;;;;;;13.23;2.50;;;;;;;;;;5095793;28;20044;-70
2022/11/01 14:11:53;;;;;;;10.95;2.50;;;;;;;;;;5082323;28;20047;-70
2022/11/01 14:14:31;;;;;;;9.43;2.10;;;;;;;;;;5091050;27;20047;-70
2022/11/01 14:17:15;;;;;;;9.90;2.25;;;;;;;;;;5103404;27;20055;-70
2022/11/01 14:19:42;;;;;;;9.95;2.00;;;;;;;;;;5101162;28;20446;-68
2022/11/01 14:22:23;;;;;;;11.23;2.03;;;;;;;;;;5100618;27;20391;-70
2022/11/01 14:24:57;;;;;;;10.33;1.97;;;;;;;;;;5102380;27;20109;-67
2022/11/01 14:27:33;;;;;;;12.00;2.20;;;;;;;;;;5096920;28;20632;-70
2022/11/01 14:30:00;;;;;;;9.23;1.95;;;;;;;;;;5103392;28;20078;-70
2022/11/01 14:32:28;;;;;;;9.38;2.03;;;;;;;;;;5097284;28;20096;-69
2022/11/01 14:35:01;;;;;;;9.27;2.28;;;;;;;;;;5105809;27;20507;-66
2022/11/01 14:37:28;;;;;;;6.53;1.83;;;;;;;;;;5105121;28;20143;-68
2022/11/01 14:39:58;;;;;;;12.57;2.45;;;;;;;;;;5098203;28;20071;-69
2022/11/01 14:42:28;;;;;;;9.30;2.03;;;;;;;;;;5078051;28;20086;-70
2022/11/01 14:44:54;;;;;;;9.75;2.00;;;;;;;;;;5102031;28;20165;-70
2022/11/01 14:47:22;;;;;;;9.43;2.10;;;;;;;;;;5095998;28;20035;-70
2022/11/01 14:49:49;;;;;;;10.95;2.58;;;;;;;;;;5099520;28;20044;-70